Disney Magic — C6PT7 — position and weather

sailwx.info

Track history (hours):
 
Tides and Currents Weather Stations Pressure Air Temp Water Temp Dewpoint Dewpoint Depression Visibility Wind Speed Wind Dir Waves Ship Positions

Disney Magic

Last reported at 2015-Mar-30 03:10 UTC. Time now 2015-Mar-31 06:46 UTC.
Position N 26°45' W 079°56'.

Type: Passenger vessel. MMSI: 308516000.

Date/timePositionNaut miles runAvg speedWind from/ knotsBaromVisibWave heightAir tempDewpointWater temp
2015-Mar-30 03:10N 26°45' W 079°56'1219.9
2015-Mar-30 02:33N 26°57' W 079°56'  
2015-Mar-26 04:00N 18°54' W 079°48'41613.6 090 / 41016.010.8 25.520.227.7
2015-Mar-24 21:28N 20°32' W 086°57'2 1.8
2015-Mar-24 20:33N 20°31' W 086°57'0 0.0
2015-Mar-24 19:33N 20°31' W 086°57'0 0.0
2015-Mar-24 18:33N 20°31' W 086°57'0 0.0
2015-Mar-24 17:33N 20°31' W 086°57'0 0.0
2015-Mar-24 16:33N 20°31' W 086°57'0 0.0
2015-Mar-24 15:33N 20°31' W 086°57'0 0.0
2015-Mar-24 14:33N 20°31' W 086°57'0 0.0
2015-Mar-24 13:27N 20°31' W 086°57'0 0.0
2015-Mar-24 12:33N 20°31' W 086°57'16917.7
2015-Mar-24 03:00N 22°24' W 084°42'34418.4 230 / 71015.010.8 0.526.023.126.5
2015-Mar-23 08:18N 25°30' W 079°25'1519.4
2015-Mar-23 07:32N 25°44' W 079°24'1919.1
2015-Mar-23 06:33N 26°03' W 079°24'2018.8
2015-Mar-23 05:31N 26°23' W 079°23'1919.2
2015-Mar-23 04:33N 26°41' W 079°21'5116.9
2015-Mar-23 01:33N 27°31' W 079°34'1818.1
2015-Mar-23 00:33N 27°43' W 079°49'60 5.7
2015-Mar-22 14:07N 28°25' W 080°38'96 9.1
2015-Mar-22 03:33N 27°06' W 079°35'1919.3
2015-Mar-22 02:33N 26°50' W 079°24'6220.3
2015-Mar-21 23:30N 26°15' W 078°26'5015.6
2015-Mar-21 20:19N 26°05' W 077°32'0 0.0
2015-Mar-21 19:19N 26°05' W 077°32'39 3.9
2015-Mar-21 09:14N 26°07' W 078°16'1314.3
2015-Mar-21 08:19N 26°08' W 078°30'3217.8
2015-Mar-21 06:30N 26°12' W 079°06'1918.7
2015-Mar-21 05:28N 25°59' W 079°21'1820.0
2015-Mar-21 04:33N 25°41' W 079°28'47819.5
2015-Mar-20 04:00N 20°54' W 086°24'   120 / 121016.010.8 0.526.019.927.0
Track history (hours):
 
Tides and Currents Weather Stations Pressure Air Temp Water Temp Dewpoint Dewpoint Depression Visibility Wind Speed Wind Dir Waves Ship Positions

Disney Magic

Last reported at 2015-Mar-30 03:10 UTC. Time now 2015-Mar-31 06:46 UTC.
Position N 26°45' W 079°56'.

Type: Passenger vessel. MMSI: 308516000.

Date/timePositionNaut miles runAvg speedWind from/ knotsBaromVisibWave heightAir tempDewpointWater temp
2015-Mar-30 03:10N 26°45' W 079°56'1219.9
2015-Mar-30 02:33N 26°57' W 079°56'  
2015-Mar-26 04:00N 18°54' W 079°48'41613.6 090 / 41016.010.8 25.520.227.7
2015-Mar-24 21:28N 20°32' W 086°57'2 1.8
2015-Mar-24 20:33N 20°31' W 086°57'0 0.0
2015-Mar-24 19:33N 20°31' W 086°57'0 0.0
2015-Mar-24 18:33N 20°31' W 086°57'0 0.0
2015-Mar-24 17:33N 20°31' W 086°57'0 0.0
2015-Mar-24 16:33N 20°31' W 086°57'0 0.0
2015-Mar-24 15:33N 20°31' W 086°57'0 0.0
2015-Mar-24 14:33N 20°31' W 086°57'0 0.0
2015-Mar-24 13:27N 20°31' W 086°57'0 0.0
2015-Mar-24 12:33N 20°31' W 086°57'16917.7
2015-Mar-24 03:00N 22°24' W 084°42'34418.4 230 / 71015.010.8 0.526.023.126.5
2015-Mar-23 08:18N 25°30' W 079°25'1519.4
2015-Mar-23 07:32N 25°44' W 079°24'1919.1
2015-Mar-23 06:33N 26°03' W 079°24'2018.8
2015-Mar-23 05:31N 26°23' W 079°23'1919.2
2015-Mar-23 04:33N 26°41' W 079°21'5116.9
2015-Mar-23 01:33N 27°31' W 079°34'1818.1
2015-Mar-23 00:33N 27°43' W 079°49'60 5.7
2015-Mar-22 14:07N 28°25' W 080°38'96 9.1
2015-Mar-22 03:33N 27°06' W 079°35'1919.3
2015-Mar-22 02:33N 26°50' W 079°24'6220.3
2015-Mar-21 23:30N 26°15' W 078°26'5015.6
2015-Mar-21 20:19N 26°05' W 077°32'0 0.0
2015-Mar-21 19:19N 26°05' W 077°32'39 3.9
2015-Mar-21 09:14N 26°07' W 078°16'1314.3
2015-Mar-21 08:19N 26°08' W 078°30'3217.8
2015-Mar-21 06:30N 26°12' W 079°06'1918.7
2015-Mar-21 05:28N 25°59' W 079°21'1820.0
2015-Mar-21 04:33N 25°41' W 079°28'47819.5
2015-Mar-20 04:00N 20°54' W 086°24'   120 / 121016.010.8 0.526.019.927.0

Dump ship's entire track history